createdAt,value
2018-05-10T00:01:27.878Z,6.35
2018-05-10T00:03:56.148Z,5.93
2018-05-10T00:06:24.349Z,6.32
2018-05-10T00:08:51.781Z,8.20
2018-05-10T00:11:19.282Z,7.55
2018-05-10T00:13:46.712Z,6.73
2018-05-10T00:16:14.153Z,7.47
2018-05-10T00:18:41.660Z,6.72
2018-05-10T00:21:09.095Z,9.20
2018-05-10T00:23:36.546Z,6.10
2018-05-10T00:26:04.003Z,6.10
2018-05-10T00:28:31.441Z,6.12
2018-05-10T00:30:58.863Z,7.20
2018-05-10T00:33:26.301Z,6.82
2018-05-10T00:35:53.737Z,8.05
2018-05-10T00:38:21.387Z,7.45
2018-05-10T00:40:48.812Z,7.53
2018-05-10T00:43:17.007Z,5.60
2018-05-10T00:45:44.448Z,5.53
2018-05-10T00:48:11.873Z,6.95
2018-05-10T00:50:39.412Z,6.80
2018-05-10T00:53:06.852Z,13.45
2018-05-10T00:55:34.281Z,7.15
2018-05-10T00:58:01.753Z,6.00
2018-05-10T01:00:29.192Z,6.62
2018-05-10T01:02:56.670Z,6.90
2018-05-10T01:05:24.080Z,8.27
2018-05-10T01:07:52.300Z,7.50
2018-05-10T01:10:19.732Z,7.68
2018-05-10T01:12:47.953Z,7.15
2018-05-10T01:15:15.390Z,6.72
2018-05-10T01:17:42.834Z,6.60
2018-05-10T01:20:10.257Z,6.73
2018-05-10T01:22:38.479Z,6.25
2018-05-10T01:25:05.897Z,6.30
2018-05-10T01:27:34.118Z,11.02
2018-05-10T01:30:01.582Z,7.15
2018-05-10T01:32:29.015Z,6.90
2018-05-10T01:35:08.576Z,7.00
2018-05-10T01:37:36.030Z,6.43
2018-05-10T01:40:03.464Z,7.80
2018-05-10T01:42:30.956Z,6.93
2018-05-10T01:44:58.399Z,6.30
2018-05-10T01:47:25.864Z,8.23
2018-05-10T01:49:53.292Z,7.40
2018-05-10T01:52:20.780Z,7.03
2018-05-10T01:54:48.235Z,6.93
2018-05-10T01:57:15.685Z,7.90
2018-05-10T01:59:43.126Z,7.90
2018-05-10T02:02:10.704Z,6.57
2018-05-10T02:04:38.147Z,6.78
2018-05-10T02:07:05.580Z,7.10
2018-05-10T02:09:33.014Z,6.75
2018-05-10T02:12:01.217Z,6.65
2018-05-10T02:14:28.661Z,7.35
2018-05-10T02:16:56.081Z,7.28
2018-05-10T02:19:23.590Z,8.03
2018-05-10T02:21:51.078Z,7.43
2018-05-10T02:24:18.528Z,7.80
2018-05-10T02:26:45.957Z,7.47
2018-05-10T02:29:13.396Z,7.65
2018-05-10T02:31:40.866Z,9.90
2018-05-10T02:34:08.349Z,8.10
2018-05-10T02:36:35.820Z,7.70
2018-05-10T02:39:03.259Z,7.00
2018-05-10T02:41:30.694Z,7.30
2018-05-10T02:43:58.121Z,6.97
2018-05-10T02:46:26.439Z,7.45
2018-05-10T02:48:53.917Z,9.70
2018-05-10T02:51:21.358Z,9.25
2018-05-10T02:53:48.809Z,10.70
2018-05-10T02:56:16.267Z,8.03
2018-05-10T02:58:43.701Z,7.72
2018-05-10T03:01:11.128Z,8.18
2018-05-10T03:03:39.329Z,7.70
2018-05-10T03:06:06.773Z,8.20
2018-05-10T03:08:34.977Z,7.55
2018-05-10T03:11:02.405Z,7.83
2018-05-10T03:13:30.613Z,7.60
2018-05-10T03:15:58.039Z,8.30
2018-05-10T03:18:25.492Z,10.00
2018-05-10T03:20:53.688Z,8.48
2018-05-10T03:23:21.154Z,11.70
2018-05-10T03:25:48.568Z,9.65
2018-05-10T03:28:16.759Z,8.35
2018-05-10T03:30:44.217Z,9.57
2018-05-10T03:33:11.652Z,9.20
2018-05-10T03:35:39.093Z,8.23
2018-05-10T03:38:06.520Z,8.85
2018-05-10T03:40:34.036Z,8.52
2018-05-10T03:43:01.443Z,8.50
2018-05-10T03:45:28.883Z,8.70
2018-05-10T03:47:56.336Z,8.30
2018-05-10T03:50:23.776Z,8.20
2018-05-10T03:52:51.205Z,8.27
2018-05-10T03:55:18.638Z,10.70
2018-05-10T03:57:46.069Z,8.50
2018-05-10T04:00:13.556Z,7.95
2018-05-10T04:05:51.439Z,8.90
2018-05-10T04:08:30.802Z,8.67
2018-05-10T04:11:10.252Z,8.18
2018-05-10T04:13:37.697Z,8.13
2018-05-10T04:16:05.137Z,8.65
2018-05-10T04:18:32.577Z,10.50
2018-05-10T04:21:00.072Z,8.67
2018-05-10T04:23:27.510Z,9.40
2018-05-10T04:25:54.984Z,8.60
2018-05-10T04:28:22.408Z,8.05
2018-05-10T04:30:49.856Z,8.85
2018-05-10T04:33:17.273Z,8.65
2018-05-10T04:35:45.592Z,10.07
2018-05-10T04:38:12.959Z,8.40
2018-05-10T04:40:40.419Z,9.93
2018-05-10T04:43:07.867Z,8.43
2018-05-10T04:45:35.317Z,9.95
2018-05-10T04:48:02.749Z,9.02
2018-05-10T04:50:30.280Z,8.50
2018-05-10T04:52:57.702Z,10.27
2018-05-10T04:55:25.190Z,8.95
2018-05-10T04:57:52.625Z,9.02
2018-05-10T05:00:20.043Z,8.25
2018-05-10T05:02:47.485Z,9.10
2018-05-10T05:05:15.707Z,8.82
2018-05-10T05:07:43.157Z,8.73
2018-05-10T05:10:10.619Z,9.32
2018-05-10T05:12:38.068Z,9.00
2018-05-10T05:15:05.497Z,9.07
2018-05-10T05:17:33.000Z,9.50
2018-05-10T05:20:00.446Z,9.27
2018-05-10T05:22:27.891Z,9.50
2018-05-10T05:24:55.640Z,9.20
2018-05-10T05:27:23.077Z,9.83
2018-05-10T05:29:50.512Z,10.10
2018-05-10T05:32:18.733Z,9.30
2018-05-10T05:34:46.214Z,9.10
2018-05-10T05:37:13.671Z,10.00
2018-05-10T05:39:41.106Z,9.20
2018-05-10T05:42:08.557Z,10.00
2018-05-10T05:44:35.989Z,10.37
2018-05-10T05:47:03.429Z,10.30
2018-05-10T05:49:31.624Z,10.27
2018-05-10T05:51:59.124Z,10.32
2018-05-10T05:54:26.585Z,10.73
2018-05-10T05:56:54.040Z,10.32
2018-05-10T05:59:21.497Z,14.10
2018-05-10T06:01:48.950Z,11.23
2018-05-10T06:04:16.385Z,10.25
2018-05-10T06:06:43.944Z,10.77
2018-05-10T06:09:11.386Z,12.23
2018-05-10T06:11:38.823Z,12.50
2018-05-10T06:14:07.025Z,11.07
2018-05-10T06:16:34.471Z,11.20
2018-05-10T06:19:01.904Z,12.30
2018-05-10T06:21:30.136Z,11.90
2018-05-10T06:23:57.593Z,12.57
2018-05-10T06:26:25.039Z,11.55
2018-05-10T06:28:52.488Z,11.30
2018-05-10T06:31:19.926Z,11.35
2018-05-10T06:33:47.379Z,11.80
2018-05-10T06:36:14.816Z,11.30
2018-05-10T06:38:43.041Z,10.50
2018-05-10T06:41:10.477Z,14.40
2018-05-10T06:43:37.921Z,11.60
2018-05-10T06:46:05.365Z,11.32
2018-05-10T06:48:33.580Z,11.47
2018-05-10T06:51:01.024Z,11.90
2018-05-10T06:53:28.483Z,12.80
2018-05-10T06:55:55.929Z,12.52
2018-05-10T06:58:23.390Z,12.20
2018-05-10T07:00:50.828Z,12.87
2018-05-10T07:03:18.465Z,15.07
2018-05-10T07:05:46.492Z,13.37
2018-05-10T07:08:13.928Z,13.30
2018-05-10T07:10:41.361Z,13.20
2018-05-10T07:13:09.577Z,14.60
2018-05-10T07:15:37.021Z,12.63
2018-05-10T07:18:04.460Z,12.52
2018-05-10T07:20:31.907Z,12.55
2018-05-10T07:22:59.345Z,12.50
2018-05-10T07:25:27.589Z,13.48
2018-05-10T07:27:55.025Z,14.10
2018-05-10T07:30:22.502Z,12.95
2018-05-10T07:32:50.048Z,13.75
2018-05-10T07:35:17.416Z,12.70
2018-05-10T07:37:44.953Z,11.45
2018-05-10T07:40:12.441Z,12.47
2018-05-10T07:42:39.893Z,11.43
2018-05-10T07:45:07.329Z,11.52
2018-05-10T07:47:34.792Z,10.75
2018-05-10T07:50:02.248Z,11.80
2018-05-10T07:52:29.690Z,13.47
2018-05-10T07:54:57.250Z,11.70
2018-05-10T07:57:24.676Z,12.00
2018-05-10T07:59:52.124Z,11.90
2018-05-10T08:02:20.361Z,11.73
2018-05-10T08:04:47.890Z,11.93
2018-05-10T08:07:15.334Z,11.10
2018-05-10T08:09:42.794Z,11.35
2018-05-10T08:12:10.213Z,11.23
2018-05-10T08:14:38.440Z,12.30
2018-05-10T08:17:05.964Z,13.52
2018-05-10T08:19:33.315Z,11.73
2018-05-10T08:22:01.542Z,12.40
2018-05-10T08:24:29.005Z,12.70
2018-05-10T08:26:56.456Z,11.70
2018-05-10T08:29:23.901Z,12.40
2018-05-10T08:31:51.348Z,12.53
2018-05-10T08:34:18.808Z,12.88
2018-05-10T08:36:46.282Z,13.23
2018-05-10T08:39:13.686Z,13.52
2018-05-10T08:41:41.908Z,13.00
2018-05-10T08:44:09.401Z,12.88
2018-05-10T08:46:36.915Z,12.50
2018-05-10T08:49:04.342Z,14.35
2018-05-10T08:51:31.855Z,12.50
2018-05-10T08:53:59.328Z,12.80
2018-05-10T08:56:26.765Z,11.95
2018-05-10T08:58:54.325Z,12.00
2018-05-10T09:01:21.771Z,12.15
2018-05-10T09:03:49.205Z,12.70
2018-05-10T09:06:16.713Z,12.32
2018-05-10T09:08:44.234Z,12.23
2018-05-10T09:11:11.679Z,14.73
2018-05-10T09:13:39.135Z,13.82
2018-05-10T09:16:06.576Z,11.93
2018-05-10T09:18:34.030Z,12.43
2018-05-10T09:21:02.249Z,14.30
2018-05-10T09:23:29.697Z,13.23
2018-05-10T09:25:57.172Z,11.95
2018-05-10T09:28:24.732Z,13.40
2018-05-10T09:30:52.164Z,13.57
2018-05-10T09:33:19.662Z,17.60
2018-05-10T09:35:47.095Z,13.05
2018-05-10T09:38:14.549Z,12.73
2018-05-10T09:40:42.086Z,13.30
2018-05-10T09:43:09.564Z,13.70
2018-05-10T09:45:37.028Z,13.48
2018-05-10T09:48:04.460Z,13.20
2018-05-10T09:50:31.913Z,12.75
2018-05-10T09:52:59.359Z,12.93
2018-05-10T09:55:26.795Z,13.30
2018-05-10T09:57:54.262Z,13.25
2018-05-10T10:00:29.460Z,13.35
2018-05-10T10:02:56.887Z,13.73
2018-05-10T10:05:24.344Z,14.60
2018-05-10T10:07:51.776Z,13.27
2018-05-10T10:10:19.224Z,13.43
2018-05-10T10:12:46.663Z,13.48
2018-05-10T10:15:14.109Z,13.02
2018-05-10T10:17:42.399Z,12.60
2018-05-10T10:20:09.778Z,12.93
2018-05-10T10:22:37.220Z,14.85
2018-05-10T10:25:04.677Z,13.23
2018-05-10T10:27:32.160Z,12.20
2018-05-10T10:29:59.607Z,12.73
2018-05-10T10:32:27.134Z,13.43
2018-05-10T10:34:54.624Z,11.60
2018-05-10T10:37:22.057Z,11.60
2018-05-10T10:39:49.504Z,11.70
2018-05-10T10:42:17.713Z,10.80
2018-05-10T10:44:45.179Z,15.60
2018-05-10T10:47:12.642Z,11.85
2018-05-10T10:49:40.076Z,11.35
2018-05-10T10:52:07.523Z,13.52
2018-05-10T10:54:34.990Z,14.10
2018-05-10T10:57:02.450Z,10.52
2018-05-10T10:59:29.877Z,11.80
2018-05-10T11:01:57.427Z,12.00
2018-05-10T11:04:24.801Z,10.98
2018-05-10T11:06:52.257Z,11.03
2018-05-10T11:09:19.722Z,10.95
2018-05-10T11:11:47.168Z,12.15
2018-05-10T11:14:14.617Z,12.85
2018-05-10T11:16:42.812Z,14.35
2018-05-10T11:19:10.279Z,11.43
2018-05-10T11:21:37.744Z,10.10
2018-05-10T11:24:05.186Z,10.15
2018-05-10T11:26:32.645Z,10.57
2018-05-10T11:29:00.199Z,12.15
2018-05-10T11:31:27.637Z,10.98
2018-05-10T11:33:55.065Z,10.40
2018-05-10T11:36:23.281Z,10.95
2018-05-10T11:38:50.732Z,11.20
2018-05-10T11:41:18.192Z,12.27
2018-05-10T11:43:45.698Z,12.37
2018-05-10T11:46:13.141Z,12.10
2018-05-10T11:48:40.791Z,11.90
2018-05-10T11:51:08.330Z,11.35
2018-05-10T11:53:35.744Z,11.68
2018-05-10T11:56:04.063Z,11.10
2018-05-10T11:58:31.499Z,11.32
2018-05-10T12:00:58.962Z,11.20
2018-05-10T12:03:26.432Z,11.60
2018-05-10T12:05:53.865Z,11.38
2018-05-10T12:08:21.352Z,12.27
2018-05-10T12:10:48.807Z,10.52
2018-05-10T12:13:16.232Z,12.27
2018-05-10T12:15:43.744Z,12.40
2018-05-10T12:18:11.188Z,13.10
2018-05-10T12:20:38.733Z,14.20
2018-05-10T12:23:06.200Z,12.43
2018-05-10T12:25:33.738Z,12.60
2018-05-10T12:28:01.111Z,12.23
2018-05-10T12:30:28.577Z,12.90
2018-05-10T12:32:55.992Z,15.20
2018-05-10T12:35:23.430Z,12.13
2018-05-10T12:37:51.684Z,12.57
2018-05-10T12:40:19.157Z,29.58
2018-05-10T12:42:47.400Z,36.03
2018-05-10T12:45:14.853Z,42.23
2018-05-10T12:47:42.305Z,49.45
2018-05-10T12:50:09.841Z,56.60
2018-05-10T12:52:37.401Z,58.45
2018-05-10T12:55:04.836Z,61.00
2018-05-10T12:57:32.290Z,63.20
2018-05-10T12:59:59.720Z,62.40
2018-05-10T13:02:28.045Z,65.85
2018-05-10T13:04:55.535Z,64.60
2018-05-10T13:07:22.978Z,64.65
2018-05-10T13:09:50.413Z,63.40
2018-05-10T13:12:17.856Z,61.70
2018-05-10T13:14:45.284Z,62.47
2018-05-10T13:17:13.603Z,59.97
2018-05-10T13:19:41.025Z,59.72
2018-05-10T13:22:09.233Z,61.60
2018-05-10T13:24:36.676Z,63.60
2018-05-10T13:27:04.125Z,61.00
2018-05-10T13:29:31.620Z,61.97
2018-05-10T13:31:59.064Z,59.42
2018-05-10T13:34:26.496Z,62.37
2018-05-10T13:36:53.939Z,59.88
2018-05-10T13:39:22.161Z,59.03
2018-05-10T13:41:49.610Z,58.85
2018-05-10T13:44:17.055Z,58.93
2018-05-10T13:46:44.500Z,56.60
2018-05-10T13:49:11.982Z,57.90
2018-05-10T13:51:39.417Z,56.42
2018-05-10T13:54:06.892Z,51.03
2018-05-10T13:56:34.361Z,48.43
2018-05-10T13:59:01.866Z,41.58
2018-05-10T14:01:29.253Z,38.33
2018-05-10T14:03:56.700Z,36.88
2018-05-10T14:06:24.148Z,38.50
2018-05-10T14:08:51.595Z,36.37
2018-05-10T14:11:19.815Z,35.40
2018-05-10T14:13:47.236Z,34.47
2018-05-10T14:16:14.724Z,34.30
2018-05-10T14:18:42.219Z,35.30
2018-05-10T14:21:09.719Z,34.10
2018-05-10T14:23:37.152Z,35.35
2018-05-10T14:26:04.609Z,33.57
2018-05-10T14:28:32.105Z,36.20
2018-05-10T14:30:59.560Z,37.50
2018-05-10T14:33:27.007Z,37.10
2018-05-10T14:35:54.441Z,37.90
2018-05-10T14:38:21.912Z,33.80
2018-05-10T14:40:49.340Z,33.47
2018-05-10T14:43:16.813Z,27.52
2018-05-10T14:45:44.257Z,26.48
2018-05-10T14:48:11.768Z,28.17
2018-05-10T14:50:39.208Z,26.33
2018-05-10T14:53:06.661Z,26.35
2018-05-10T14:55:34.125Z,27.70
2018-05-10T14:58:01.593Z,27.37
2018-05-10T15:00:29.029Z,27.37
2018-05-10T15:02:56.495Z,26.83
2018-05-10T15:05:23.940Z,26.05
2018-05-10T15:07:51.400Z,27.95
2018-05-10T15:10:18.954Z,27.10
2018-05-10T15:12:46.545Z,26.52
2018-05-10T15:15:13.987Z,27.45
2018-05-10T15:17:41.445Z,27.20
2018-05-10T15:20:08.884Z,26.30
2018-05-10T15:22:36.347Z,27.40
2018-05-10T15:25:03.819Z,27.23
2018-05-10T15:27:31.263Z,28.55
2018-05-10T15:29:58.700Z,28.80
2018-05-10T15:32:26.157Z,31.17
2018-05-10T15:34:53.612Z,30.30
2018-05-10T15:37:21.058Z,33.10
2018-05-10T15:39:48.492Z,31.40
2018-05-10T15:42:16.805Z,30.95
2018-05-10T15:44:44.309Z,30.45
2018-05-10T15:47:11.848Z,31.30
2018-05-10T15:49:39.335Z,29.27
2018-05-10T15:52:06.781Z,28.15
2018-05-10T15:54:34.290Z,28.58
2018-05-10T15:57:01.724Z,24.20
2018-05-10T15:59:29.242Z,24.95
2018-05-10T16:01:56.790Z,22.37
2018-05-10T16:04:24.247Z,20.52
2018-05-10T16:06:51.693Z,19.45
2018-05-10T16:09:19.215Z,18.70
2018-05-10T16:11:46.651Z,17.48
2018-05-10T16:14:14.089Z,15.80
2018-05-10T16:16:41.602Z,13.80
2018-05-10T16:19:09.059Z,11.70
2018-05-10T16:21:36.491Z,12.80
2018-05-10T16:24:04.026Z,9.70
2018-05-10T16:26:32.448Z,8.57
2018-05-10T16:28:59.849Z,8.02
2018-05-10T16:31:27.273Z,7.97
2018-05-10T16:33:54.724Z,8.48
2018-05-10T16:36:22.204Z,6.87
2018-05-10T16:38:49.647Z,8.52
2018-05-10T16:41:17.085Z,5.60
2018-05-10T16:43:44.529Z,6.35
2018-05-10T16:46:12.002Z,6.20
2018-05-10T16:48:39.430Z,7.95
2018-05-10T16:51:07.852Z,7.20
2018-05-10T16:53:35.371Z,6.35
2018-05-10T16:56:02.873Z,8.97
2018-05-10T16:58:30.327Z,5.82
2018-05-10T17:00:57.760Z,4.87
2018-05-10T17:03:25.233Z,4.80
2018-05-10T17:05:52.664Z,7.70
2018-05-10T17:08:20.120Z,5.93
2018-05-10T17:10:47.556Z,7.07
2018-05-10T17:13:15.009Z,6.90
2018-05-10T17:15:43.417Z,4.30
2018-05-10T17:18:10.845Z,7.30
2018-05-10T17:20:39.043Z,4.62
2018-05-10T17:23:06.503Z,5.40
2018-05-10T17:25:33.943Z,5.60
2018-05-10T17:28:01.376Z,4.87
2018-05-10T17:30:28.806Z,6.60
2018-05-10T17:32:56.257Z,5.70
2018-05-10T17:35:23.702Z,4.95
2018-05-10T17:37:51.147Z,6.30
2018-05-10T17:40:18.768Z,5.60
2018-05-10T17:42:47.008Z,10.03
2018-05-10T17:45:14.436Z,5.75
2018-05-10T17:47:41.875Z,6.32
2018-05-10T17:50:09.335Z,6.55
2018-05-10T17:52:36.765Z,5.82
2018-05-10T17:55:04.976Z,8.48
2018-05-10T17:57:32.409Z,7.45
2018-05-10T17:59:59.931Z,6.22
2018-05-10T18:02:27.378Z,6.68
2018-05-10T18:04:55.170Z,7.22
2018-05-10T18:07:22.644Z,7.93
2018-05-10T18:09:50.031Z,8.65
2018-05-10T18:12:17.474Z,8.57
2018-05-10T18:14:44.931Z,7.78
2018-05-10T18:17:12.408Z,8.35
2018-05-10T18:19:39.945Z,8.18
2018-05-10T18:22:07.403Z,9.23
2018-05-10T18:24:34.855Z,6.75
2018-05-10T18:27:02.276Z,6.90
2018-05-10T18:29:30.487Z,8.82
2018-05-10T18:31:57.912Z,7.70
2018-05-10T18:34:26.116Z,8.18
2018-05-10T18:36:53.552Z,8.10
2018-05-10T18:39:21.849Z,9.70
2018-05-10T18:41:49.780Z,11.35
2018-05-10T18:44:18.018Z,7.15
2018-05-10T18:46:45.445Z,8.55
2018-05-10T18:49:12.933Z,8.90
2018-05-10T18:51:40.383Z,6.43
2018-05-10T18:54:07.867Z,10.32
2018-05-10T18:56:35.297Z,8.52
2018-05-10T18:59:02.728Z,7.82
2018-05-10T19:01:30.173Z,9.93
2018-05-10T19:03:57.600Z,8.35
2018-05-10T19:06:25.801Z,11.23
2018-05-10T19:08:53.287Z,8.95
2018-05-10T19:11:20.743Z,9.00
2018-05-10T19:13:48.285Z,8.87
2018-05-10T19:16:15.740Z,9.63
2018-05-10T19:18:43.217Z,6.72
2018-05-10T19:21:10.665Z,11.60
2018-05-10T19:23:38.109Z,7.90
2018-05-10T19:26:05.545Z,9.63
2018-05-10T19:28:33.044Z,10.05
2018-05-10T19:31:00.479Z,10.52
2018-05-10T19:33:27.953Z,9.45
2018-05-10T19:35:55.405Z,10.38
2018-05-10T19:38:22.850Z,9.15
2018-05-10T19:40:50.319Z,8.40
2018-05-10T19:43:17.800Z,8.68
2018-05-10T19:45:45.232Z,6.82
2018-05-10T19:48:12.672Z,9.35
2018-05-10T19:50:40.130Z,8.13
2018-05-10T19:53:07.601Z,11.12
2018-05-10T19:55:35.048Z,9.35
2018-05-10T19:58:02.481Z,8.90
2018-05-10T20:00:29.936Z,10.38
2018-05-10T20:02:58.127Z,8.32
2018-05-10T20:05:25.600Z,8.47
2018-05-10T20:07:53.061Z,6.75
2018-05-10T20:10:20.506Z,8.93
2018-05-10T20:12:47.936Z,8.00
2018-05-10T20:15:15.438Z,8.05
2018-05-10T20:17:42.861Z,8.60
2018-05-10T20:20:10.312Z,11.40
2018-05-10T20:22:37.768Z,8.20
2018-05-10T20:25:05.233Z,8.98
2018-05-10T20:27:32.674Z,9.20
2018-05-10T20:30:00.173Z,9.77
2018-05-10T20:32:27.668Z,8.70
2018-05-10T20:34:55.098Z,10.82
2018-05-10T20:37:22.568Z,8.48
2018-05-10T20:39:51.508Z,7.33
2018-05-10T20:42:18.951Z,10.30
2018-05-10T20:44:46.528Z,8.00
2018-05-10T20:47:14.628Z,7.10
2018-05-10T20:49:42.256Z,9.45
2018-05-10T20:52:09.697Z,8.97
2018-05-10T20:54:37.887Z,9.68
2018-05-10T20:57:05.360Z,10.50
2018-05-10T20:59:32.820Z,8.90
2018-05-10T21:02:00.252Z,9.93
2018-05-10T21:04:27.713Z,9.60
2018-05-10T21:06:55.144Z,9.07
2018-05-10T21:09:22.589Z,7.82
2018-05-10T21:11:50.830Z,10.05
2018-05-10T21:14:18.275Z,9.52
2018-05-10T21:16:45.721Z,10.32
2018-05-10T21:19:13.184Z,11.00
2018-05-10T21:21:40.748Z,10.77
2018-05-10T21:24:08.196Z,8.73
2018-05-10T21:26:35.666Z,10.23
2018-05-10T21:29:03.104Z,12.13
2018-05-10T21:31:30.557Z,11.02
2018-05-10T21:33:58.029Z,10.40
2018-05-10T21:36:25.429Z,8.13
2018-05-10T21:38:53.638Z,9.95
2018-05-10T21:41:21.195Z,11.45
2018-05-10T21:43:48.617Z,10.57
2018-05-10T21:46:16.841Z,11.30
2018-05-10T21:48:44.269Z,9.07
2018-05-10T21:51:11.724Z,10.98
2018-05-10T21:53:39.162Z,9.82
2018-05-10T21:56:07.469Z,9.32
2018-05-10T21:58:34.896Z,9.37
2018-05-10T22:01:03.122Z,10.80
2018-05-10T22:03:30.656Z,11.35
2018-05-10T22:05:58.085Z,9.48
2018-05-10T22:08:26.328Z,10.77
2018-05-10T22:10:53.756Z,11.88
2018-05-10T22:13:21.197Z,9.98
2018-05-10T22:15:48.640Z,11.30
2018-05-10T22:18:16.077Z,10.57
2018-05-10T22:20:44.318Z,15.40
2018-05-10T22:23:11.757Z,10.53
2018-05-10T22:25:39.202Z,9.70
2018-05-10T22:28:06.631Z,11.50
2018-05-10T22:30:34.091Z,9.85
2018-05-10T22:33:01.527Z,9.83
2018-05-10T22:35:29.788Z,12.23
2018-05-10T22:37:57.182Z,11.35
2018-05-10T22:40:24.616Z,9.00
2018-05-10T22:42:52.827Z,9.48
2018-05-10T22:45:20.263Z,11.43
2018-05-10T22:47:47.702Z,9.40
2018-05-10T22:50:15.910Z,10.18
2018-05-10T22:52:43.354Z,11.07
2018-05-10T22:55:10.785Z,10.80
2018-05-10T22:57:39.001Z,10.25
2018-05-10T23:00:06.440Z,12.80
2018-05-10T23:02:33.898Z,12.10
2018-05-10T23:05:01.449Z,9.55
2018-05-10T23:07:29.537Z,9.70
2018-05-10T23:09:56.989Z,11.77
2018-05-10T23:12:24.449Z,10.35
2018-05-10T23:14:52.009Z,9.88
2018-05-10T23:17:19.464Z,9.20
2018-05-10T23:19:46.949Z,11.98
2018-05-10T23:22:14.400Z,9.90
2018-05-10T23:24:41.852Z,8.30
2018-05-10T23:27:09.303Z,10.55
2018-05-10T23:29:36.799Z,8.60
2018-05-10T23:32:04.204Z,9.20
2018-05-10T23:34:31.644Z,8.45
2018-05-10T23:36:59.079Z,9.98
2018-05-10T23:39:26.519Z,7.60
2018-05-10T23:41:53.952Z,11.47
2018-05-10T23:44:21.383Z,7.95
2018-05-10T23:46:48.953Z,8.85
2018-05-10T23:49:16.389Z,7.70
2018-05-10T23:51:43.839Z,8.60
2018-05-10T23:54:11.265Z,7.80
2018-05-10T23:56:38.701Z,9.68
2018-05-10T23:59:06.132Z,7.72
